sensor_id;sensor_type;location;lat;lon;timestamp;pressure;altitude;pressure_sealevel;temperature;humidity
28027;BME280;15344;52.342;-1.290;2022-07-29T00:00:41;100496.72;;;19.91;45.35
28027;BME280;15344;52.342;-1.290;2022-07-29T00:03:06;100496.24;;;20.71;44.40
28027;BME280;15344;52.342;-1.290;2022-07-29T00:05:31;100491.37;;;20.70;44.17
28027;BME280;15344;52.342;-1.290;2022-07-29T00:07:56;100491.12;;;21.86;41.27
28027;BME280;15344;52.342;-1.290;2022-07-29T00:10:21;100489.09;;;21.80;42.53
28027;BME280;15344;52.342;-1.290;2022-07-29T00:12:46;100491.51;;;20.83;42.99
28027;BME280;15344;52.342;-1.290;2022-07-29T00:15:12;100495.77;;;22.11;40.86
28027;BME280;15344;52.342;-1.290;2022-07-29T00:17:37;100491.85;;;21.04;41.31
28027;BME280;15344;52.342;-1.290;2022-07-29T00:20:02;100494.59;;;21.66;42.16
28027;BME280;15344;52.342;-1.290;2022-07-29T00:22:27;100498.62;;;22.18;40.73
28027;BME280;15344;52.342;-1.290;2022-07-29T00:24:52;100498.24;;;21.51;41.86
28027;BME280;15344;52.342;-1.290;2022-07-29T00:27:18;100497.15;;;21.56;41.64
28027;BME280;15344;52.342;-1.290;2022-07-29T00:29:42;100497.53;;;21.58;41.84
28027;BME280;15344;52.342;-1.290;2022-07-29T00:32:07;100491.98;;;21.49;42.61
28027;BME280;15344;52.342;-1.290;2022-07-29T00:34:32;100494.51;;;20.61;44.18
28027;BME280;15344;52.342;-1.290;2022-07-29T00:36:58;100494.98;;;19.45;46.47
28027;BME280;15344;52.342;-1.290;2022-07-29T00:39:23;100493.68;;;21.08;44.07
28027;BME280;15344;52.342;-1.290;2022-07-29T00:41:48;100497.87;;;21.33;43.34
28027;BME280;15344;52.342;-1.290;2022-07-29T00:44:13;100502.00;;;20.68;46.45
28027;BME280;15344;52.342;-1.290;2022-07-29T00:46:38;100500.63;;;20.28;45.00
28027;BME280;15344;52.342;-1.290;2022-07-29T00:49:03;100497.42;;;21.74;43.10
28027;BME280;15344;52.342;-1.290;2022-07-29T00:51:29;100493.81;;;21.31;43.32
28027;BME280;15344;52.342;-1.290;2022-07-29T00:53:53;100496.65;;;21.92;44.11
28027;BME280;15344;52.342;-1.290;2022-07-29T00:56:18;100493.28;;;21.61;42.61
28027;BME280;15344;52.342;-1.290;2022-07-29T00:58:45;100496.01;;;21.75;44.10
28027;BME280;15344;52.342;-1.290;2022-07-29T01:01:08;100495.87;;;22.15;41.92
28027;BME280;15344;52.342;-1.290;2022-07-29T01:03:34;100496.23;;;22.38;41.85
28027;BME280;15344;52.342;-1.290;2022-07-29T01:05:59;100493.50;;;22.23;42.07
28027;BME280;15344;52.342;-1.290;2022-07-29T01:08:24;100495.43;;;22.12;42.75
28027;BME280;15344;52.342;-1.290;2022-07-29T01:10:49;100489.67;;;21.37;43.23
28027;BME280;15344;52.342;-1.290;2022-07-29T01:13:15;100488.46;;;21.64;43.05
28027;BME280;15344;52.342;-1.290;2022-07-29T01:15:46;100488.46;;;22.01;44.12
28027;BME280;15344;52.342;-1.290;2022-07-29T01:18:09;100490.15;;;22.53;42.23
28027;BME280;15344;52.342;-1.290;2022-07-29T01:20:40;100485.62;;;21.48;42.59
28027;BME280;15344;52.342;-1.290;2022-07-29T01:23:04;100484.36;;;21.53;43.64
28027;BME280;15344;52.342;-1.290;2022-07-29T01:25:38;100485.52;;;22.34;42.77
28027;BME280;15344;52.342;-1.290;2022-07-29T01:27:56;100488.58;;;21.62;43.14
28027;BME280;15344;52.342;-1.290;2022-07-29T01:30:11;100489.59;;;20.18;46.41
28027;BME280;15344;52.342;-1.290;2022-07-29T01:32:36;100489.66;;;21.14;44.77
28027;BME280;15344;52.342;-1.290;2022-07-29T01:35:04;100494.99;;;21.13;45.27
28027;BME280;15344;52.342;-1.290;2022-07-29T01:37:28;100495.42;;;19.78;48.21
28027;BME280;15344;52.342;-1.290;2022-07-29T01:39:54;100495.70;;;19.45;49.12
28027;BME280;15344;52.342;-1.290;2022-07-29T01:42:21;100496.63;;;20.23;49.29
28027;BME280;15344;52.342;-1.290;2022-07-29T01:44:48;100495.95;;;20.76;47.42
28027;BME280;15344;52.342;-1.290;2022-07-29T01:47:12;100496.38;;;20.38;49.81
28027;BME280;15344;52.342;-1.290;2022-07-29T01:49:36;100497.76;;;20.20;49.53
28027;BME280;15344;52.342;-1.290;2022-07-29T01:51:59;100495.18;;;19.73;51.73
28027;BME280;15344;52.342;-1.290;2022-07-29T02:04:04;100493.81;;;20.08;51.10
28027;BME280;15344;52.342;-1.290;2022-07-29T02:37:56;100484.90;;;21.93;48.93
28027;BME280;15344;52.342;-1.290;2022-07-29T02:40:20;100486.31;;;22.02;49.06
28027;BME280;15344;52.342;-1.290;2022-07-29T02:47:41;100485.96;;;19.96;53.44
28027;BME280;15344;52.342;-1.290;2022-07-29T02:50:04;100483.93;;;20.97;51.97
28027;BME280;15344;52.342;-1.290;2022-07-29T02:52:29;100488.00;;;20.88;51.45
28027;BME280;15344;52.342;-1.290;2022-07-29T02:54:53;100485.55;;;21.33;52.82
28027;BME280;15344;52.342;-1.290;2022-07-29T02:57:21;100485.03;;;21.07;51.50
28027;BME280;15344;52.342;-1.290;2022-07-29T02:59:42;100483.98;;;20.71;52.17
28027;BME280;15344;52.342;-1.290;2022-07-29T03:02:07;100485.89;;;19.91;54.24
28027;BME280;15344;52.342;-1.290;2022-07-29T03:04:32;100486.12;;;20.80;51.38
28027;BME280;15344;52.342;-1.290;2022-07-29T03:06:58;100489.25;;;20.44;52.50
28027;BME280;15344;52.342;-1.290;2022-07-29T03:09:23;100490.83;;;21.07;52.00
28027;BME280;15344;52.342;-1.290;2022-07-29T03:11:47;100496.44;;;21.73;50.93
28027;BME280;15344;52.342;-1.290;2022-07-29T03:14:12;100495.19;;;22.13;50.10
28027;BME280;15344;52.342;-1.290;2022-07-29T03:16:37;100493.78;;;21.09;52.00
28027;BME280;15344;52.342;-1.290;2022-07-29T03:19:03;100492.08;;;21.39;51.09
28027;BME280;15344;52.342;-1.290;2022-07-29T03:21:28;100491.33;;;21.48;50.28
28027;BME280;15344;52.342;-1.290;2022-07-29T03:23:52;100493.04;;;21.60;51.21
28027;BME280;15344;52.342;-1.290;2022-07-29T03:26:19;100486.35;;;21.51;52.03
28027;BME280;15344;52.342;-1.290;2022-07-29T03:28:43;100487.88;;;19.53;55.03
28027;BME280;15344;52.342;-1.290;2022-07-29T03:31:09;100487.17;;;19.60;55.25
28027;BME280;15344;52.342;-1.290;2022-07-29T03:33:33;100486.91;;;20.66;53.09
28027;BME280;15344;52.342;-1.290;2022-07-29T03:35:58;100483.77;;;21.17;51.14
28027;BME280;15344;52.342;-1.290;2022-07-29T03:38:26;100482.40;;;21.03;51.21
28027;BME280;15344;52.342;-1.290;2022-07-29T03:40:53;100479.90;;;20.83;53.06
28027;BME280;15344;52.342;-1.290;2022-07-29T03:43:15;100478.09;;;20.66;53.65
28027;BME280;15344;52.342;-1.290;2022-07-29T03:45:39;100478.56;;;19.94;55.63
28027;BME280;15344;52.342;-1.290;2022-07-29T03:48:08;100480.09;;;20.23;56.71
28027;BME280;15344;52.342;-1.290;2022-07-29T03:50:30;100482.65;;;19.67;55.41
28027;BME280;15344;52.342;-1.290;2022-07-29T03:52:56;100486.27;;;20.54;54.13
28027;BME280;15344;52.342;-1.290;2022-07-29T03:55:20;100485.74;;;20.18;55.05
28027;BME280;15344;52.342;-1.290;2022-07-29T03:57:46;100487.88;;;20.75;55.20
28027;BME280;15344;52.342;-1.290;2022-07-29T04:00:11;100489.71;;;20.60;55.35
28027;BME280;15344;52.342;-1.290;2022-07-29T04:02:36;100490.03;;;19.88;56.19
28027;BME280;15344;52.342;-1.290;2022-07-29T04:05:01;100489.03;;;21.02;54.73
28027;BME280;15344;52.342;-1.290;2022-07-29T04:07:26;100489.69;;;19.22;57.72
28027;BME280;15344;52.342;-1.290;2022-07-29T04:09:51;100494.15;;;20.45;55.01
28027;BME280;15344;52.342;-1.290;2022-07-29T04:12:16;100497.51;;;21.51;52.27
28027;BME280;15344;52.342;-1.290;2022-07-29T04:14:41;100501.94;;;21.35;53.75
28027;BME280;15344;52.342;-1.290;2022-07-29T04:17:06;100501.01;;;20.11;57.50
28027;BME280;15344;52.342;-1.290;2022-07-29T04:19:32;100502.66;;;20.31;55.93
28027;BME280;15344;52.342;-1.290;2022-07-29T04:21:58;100500.32;;;21.09;53.85
28027;BME280;15344;52.342;-1.290;2022-07-29T04:24:22;100504.02;;;20.64;54.48
28027;BME280;15344;52.342;-1.290;2022-07-29T04:26:48;100505.62;;;21.38;53.31
28027;BME280;15344;52.342;-1.290;2022-07-29T04:29:12;100508.89;;;21.02;53.62
28027;BME280;15344;52.342;-1.290;2022-07-29T04:31:38;100509.07;;;20.98;52.77
28027;BME280;15344;52.342;-1.290;2022-07-29T04:34:02;100504.08;;;20.36;55.06
28027;BME280;15344;52.342;-1.290;2022-07-29T04:36:28;100503.51;;;19.16;56.91
28027;BME280;15344;52.342;-1.290;2022-07-29T04:38:53;100501.29;;;19.83;58.13
28027;BME280;15344;52.342;-1.290;2022-07-29T04:41:18;100498.01;;;19.03;60.22
28027;BME280;15344;52.342;-1.290;2022-07-29T04:43:43;100498.93;;;21.07;57.49
28027;BME280;15344;52.342;-1.290;2022-07-29T04:46:08;100494.83;;;20.01;57.05
28027;BME280;15344;52.342;-1.290;2022-07-29T04:48:34;100500.16;;;19.20;57.85
28027;BME280;15344;52.342;-1.290;2022-07-29T04:50:59;100503.29;;;20.93;56.92
28027;BME280;15344;52.342;-1.290;2022-07-29T04:53:25;100500.26;;;21.38;53.59
28027;BME280;15344;52.342;-1.290;2022-07-29T04:55:49;100499.81;;;20.20;56.12
28027;BME280;15344;52.342;-1.290;2022-07-29T04:58:14;100497.93;;;21.41;53.27
28027;BME280;15344;52.342;-1.290;2022-07-29T05:00:39;100500.73;;;20.28;54.62
28027;BME280;15344;52.342;-1.290;2022-07-29T05:03:04;100505.04;;;21.11;55.89
28027;BME280;15344;52.342;-1.290;2022-07-29T05:05:31;100509.04;;;19.35;57.29
28027;BME280;15344;52.342;-1.290;2022-07-29T05:07:55;100511.32;;;19.81;58.78
28027;BME280;15344;52.342;-1.290;2022-07-29T05:10:21;100509.54;;;20.37;58.23
28027;BME280;15344;52.342;-1.290;2022-07-29T05:12:46;100507.64;;;20.63;57.66
28027;BME280;15344;52.342;-1.290;2022-07-29T05:15:11;100510.32;;;20.46;58.50
28027;BME280;15344;52.342;-1.290;2022-07-29T05:17:36;100512.86;;;19.68;58.84
28027;BME280;15344;52.342;-1.290;2022-07-29T05:20:01;100515.28;;;19.65;60.61
28027;BME280;15344;52.342;-1.290;2022-07-29T05:22:27;100518.35;;;19.60;58.96
28027;BME280;15344;52.342;-1.290;2022-07-29T05:24:51;100518.67;;;21.20;56.63
28027;BME280;15344;52.342;-1.290;2022-07-29T05:27:16;100513.35;;;20.34;58.03
28027;BME280;15344;52.342;-1.290;2022-07-29T05:29:42;100515.68;;;20.65;57.41
28027;BME280;15344;52.342;-1.290;2022-07-29T05:32:07;100519.73;;;21.04;57.26
28027;BME280;15344;52.342;-1.290;2022-07-29T05:34:32;100521.94;;;19.70;58.35
28027;BME280;15344;52.342;-1.290;2022-07-29T05:36:57;100518.50;;;20.53;57.13
28027;BME280;15344;52.342;-1.290;2022-07-29T05:39:23;100518.98;;;20.00;61.24
28027;BME280;15344;52.342;-1.290;2022-07-29T05:41:47;100519.19;;;20.75;56.98
28027;BME280;15344;52.342;-1.290;2022-07-29T05:44:13;100523.19;;;21.02;57.23
28027;BME280;15344;52.342;-1.290;2022-07-29T05:46:38;100526.83;;;20.93;57.99
28027;BME280;15344;52.342;-1.290;2022-07-29T05:49:03;100529.84;;;20.90;58.06
28027;BME280;15344;52.342;-1.290;2022-07-29T05:51:28;100534.12;;;20.59;58.19
28027;BME280;15344;52.342;-1.290;2022-07-29T05:53:53;100536.23;;;21.33;57.71
28027;BME280;15344;52.342;-1.290;2022-07-29T05:56:18;100534.02;;;20.23;58.46
28027;BME280;15344;52.342;-1.290;2022-07-29T05:58:43;100540.24;;;20.40;58.99
28027;BME280;15344;52.342;-1.290;2022-07-29T06:01:09;100542.00;;;19.76;61.27
28027;BME280;15344;52.342;-1.290;2022-07-29T06:03:34;100539.58;;;20.83;58.62
28027;BME280;15344;52.342;-1.290;2022-07-29T06:06:00;100541.11;;;19.49;60.93
28027;BME280;15344;52.342;-1.290;2022-07-29T06:08:25;100540.91;;;20.67;58.37
28027;BME280;15344;52.342;-1.290;2022-07-29T06:10:50;100540.25;;;21.08;58.47
28027;BME280;15344;52.342;-1.290;2022-07-29T06:13:15;100539.34;;;20.48;59.07
28027;BME280;15344;52.342;-1.290;2022-07-29T06:15:40;100541.21;;;21.40;57.14
28027;BME280;15344;52.342;-1.290;2022-07-29T06:18:05;100545.01;;;21.48;57.59
28027;BME280;15344;52.342;-1.290;2022-07-29T06:20:32;100545.09;;;19.72;60.38
28027;BME280;15344;52.342;-1.290;2022-07-29T06:22:56;100547.39;;;21.07;59.80
28027;BME280;15344;52.342;-1.290;2022-07-29T06:25:21;100548.69;;;20.50;59.67
28027;BME280;15344;52.342;-1.290;2022-07-29T06:27:46;100551.29;;;20.81;59.57
28027;BME280;15344;52.342;-1.290;2022-07-29T06:30:12;100550.88;;;20.65;60.50
28027;BME280;15344;52.342;-1.290;2022-07-29T06:32:36;100554.27;;;19.93;62.13
28027;BME280;15344;52.342;-1.290;2022-07-29T06:35:02;100553.45;;;21.43;58.58
28027;BME280;15344;52.342;-1.290;2022-07-29T06:37:27;100555.98;;;20.63;59.74
28027;BME280;15344;52.342;-1.290;2022-07-29T06:39:52;100559.88;;;19.66;63.31
28027;BME280;15344;52.342;-1.290;2022-07-29T06:42:17;100560.21;;;19.73;67.08
28027;BME280;15344;52.342;-1.290;2022-07-29T06:44:42;100558.26;;;20.97;60.09
28027;BME280;15344;52.342;-1.290;2022-07-29T06:47:07;100559.78;;;20.58;62.22
28027;BME280;15344;52.342;-1.290;2022-07-29T06:49:32;100556.01;;;21.51;58.13
28027;BME280;15344;52.342;-1.290;2022-07-29T06:51:58;100558.38;;;21.83;58.07
28027;BME280;15344;52.342;-1.290;2022-07-29T06:54:23;100559.65;;;21.51;59.85
28027;BME280;15344;52.342;-1.290;2022-07-29T06:56:48;100559.54;;;22.30;58.01
28027;BME280;15344;52.342;-1.290;2022-07-29T06:59:13;100563.16;;;23.01;55.43
28027;BME280;15344;52.342;-1.290;2022-07-29T07:01:39;100563.80;;;22.95;54.63
28027;BME280;15344;52.342;-1.290;2022-07-29T07:04:03;100558.10;;;22.16;56.25
28027;BME280;15344;52.342;-1.290;2022-07-29T07:06:30;100556.94;;;20.83;59.30
28027;BME280;15344;52.342;-1.290;2022-07-29T07:08:54;100559.15;;;22.63;58.09
28027;BME280;15344;52.342;-1.290;2022-07-29T07:11:18;100558.65;;;22.14;56.56
28027;BME280;15344;52.342;-1.290;2022-07-29T07:13:43;100560.45;;;23.05;56.25
28027;BME280;15344;52.342;-1.290;2022-07-29T07:16:08;100563.56;;;23.93;53.67
28027;BME280;15344;52.342;-1.290;2022-07-29T07:18:34;100561.76;;;24.83;49.11
28027;BME280;15344;52.342;-1.290;2022-07-29T07:20:58;100565.16;;;25.01;49.22
28027;BME280;15344;52.342;-1.290;2022-07-29T07:23:25;100565.20;;;25.07;47.17
28027;BME280;15344;52.342;-1.290;2022-07-29T07:25:50;100563.67;;;27.43;44.88
28027;BME280;15344;52.342;-1.290;2022-07-29T07:28:16;100564.14;;;27.22;42.10
28027;BME280;15344;52.342;-1.290;2022-07-29T07:30:42;100565.46;;;26.67;44.81
28027;BME280;15344;52.342;-1.290;2022-07-29T07:33:07;100566.07;;;24.46;47.56
28027;BME280;15344;52.342;-1.290;2022-07-29T07:35:33;100571.64;;;24.59;48.11
28027;BME280;15344;52.342;-1.290;2022-07-29T07:37:59;100570.42;;;26.21;44.32
28027;BME280;15344;52.342;-1.290;2022-07-29T07:40:26;100572.16;;;26.17;44.72
28027;BME280;15344;52.342;-1.290;2022-07-29T07:42:51;100571.66;;;25.89;46.57
28027;BME280;15344;52.342;-1.290;2022-07-29T07:45:17;100571.60;;;25.41;44.48
28027;BME280;15344;52.342;-1.290;2022-07-29T07:47:43;100569.45;;;25.07;45.46
28027;BME280;15344;52.342;-1.290;2022-07-29T07:50:10;100570.97;;;26.09;43.81
28027;BME280;15344;52.342;-1.290;2022-07-29T07:52:34;100570.42;;;25.64;44.74
28027;BME280;15344;52.342;-1.290;2022-07-29T07:55:00;100573.87;;;25.10;44.18
28027;BME280;15344;52.342;-1.290;2022-07-29T07:57:27;100574.73;;;25.63;43.30
28027;BME280;15344;52.342;-1.290;2022-07-29T07:59:52;100574.51;;;26.33;41.97
28027;BME280;15344;52.342;-1.290;2022-07-29T08:02:18;100572.29;;;26.13;43.75
28027;BME280;15344;52.342;-1.290;2022-07-29T08:04:43;100574.47;;;27.88;39.48
28027;BME280;15344;52.342;-1.290;2022-07-29T08:07:09;100572.21;;;28.11;40.01
28027;BME280;15344;52.342;-1.290;2022-07-29T08:09:35;100570.25;;;28.62;37.69
28027;BME280;15344;52.342;-1.290;2022-07-29T08:12:01;100575.00;;;29.79;34.12
28027;BME280;15344;52.342;-1.290;2022-07-29T08:14:26;100569.67;;;30.29;34.86
28027;BME280;15344;52.342;-1.290;2022-07-29T08:16:53;100573.39;;;29.33;34.52
28027;BME280;15344;52.342;-1.290;2022-07-29T08:19:18;100572.90;;;30.30;33.75
28027;BME280;15344;52.342;-1.290;2022-07-29T08:21:43;100572.47;;;28.73;34.96
28027;BME280;15344;52.342;-1.290;2022-07-29T08:24:09;100574.66;;;29.94;33.43
28027;BME280;15344;52.342;-1.290;2022-07-29T08:26:35;100572.96;;;28.45;34.46
28027;BME280;15344;52.342;-1.290;2022-07-29T08:29:05;100576.09;;;30.82;32.61
28027;BME280;15344;52.342;-1.290;2022-07-29T08:31:26;100574.17;;;30.34;33.64
28027;BME280;15344;52.342;-1.290;2022-07-29T08:33:52;100570.38;;;29.50;34.32
28027;BME280;15344;52.342;-1.290;2022-07-29T08:36:17;100576.09;;;32.24;31.28
28027;BME280;15344;52.342;-1.290;2022-07-29T08:38:43;100570.08;;;30.54;30.60
28027;BME280;15344;52.342;-1.290;2022-07-29T08:41:09;100565.46;;;29.11;32.82
28027;BME280;15344;52.342;-1.290;2022-07-29T08:43:34;100565.02;;;29.33;34.10
28027;BME280;15344;52.342;-1.290;2022-07-29T08:46:00;100564.85;;;30.55;32.47
28027;BME280;15344;52.342;-1.290;2022-07-29T08:48:25;100566.42;;;29.95;31.21
28027;BME280;15344;52.342;-1.290;2022-07-29T08:50:56;100572.17;;;31.34;32.05
28027;BME280;15344;52.342;-1.290;2022-07-29T08:53:18;100574.57;;;28.65;31.50
28027;BME280;15344;52.342;-1.290;2022-07-29T08:55:43;100574.52;;;31.58;30.97
28027;BME280;15344;52.342;-1.290;2022-07-29T08:58:09;100569.01;;;32.85;28.13
28027;BME280;15344;52.342;-1.290;2022-07-29T09:00:35;100571.23;;;31.38;30.17
28027;BME280;15344;52.342;-1.290;2022-07-29T09:03:00;100568.15;;;31.33;29.99
28027;BME280;15344;52.342;-1.290;2022-07-29T09:05:26;100563.74;;;28.51;31.18
28027;BME280;15344;52.342;-1.290;2022-07-29T09:07:51;100559.17;;;32.94;28.07
28027;BME280;15344;52.342;-1.290;2022-07-29T09:10:16;100557.68;;;33.17;26.47
28027;BME280;15344;52.342;-1.290;2022-07-29T09:12:42;100558.86;;;32.03;28.53
28027;BME280;15344;52.342;-1.290;2022-07-29T09:15:08;100557.05;;;30.94;28.70
28027;BME280;15344;52.342;-1.290;2022-07-29T09:17:39;100554.53;;;32.31;29.81
28027;BME280;15344;52.342;-1.290;2022-07-29T09:20:08;100548.11;;;32.72;25.56
28027;BME280;15344;52.342;-1.290;2022-07-29T09:22:29;100548.87;;;33.46;27.83
28027;BME280;15344;52.342;-1.290;2022-07-29T09:24:50;100548.05;;;33.62;26.65
28027;BME280;15344;52.342;-1.290;2022-07-29T09:27:20;100548.94;;;33.75;25.76
28027;BME280;15344;52.342;-1.290;2022-07-29T09:29:40;100550.44;;;34.89;24.33
28027;BME280;15344;52.342;-1.290;2022-07-29T09:32:09;100549.09;;;32.55;25.09
28027;BME280;15344;52.342;-1.290;2022-07-29T09:34:32;100547.61;;;32.37;25.21
28027;BME280;15344;52.342;-1.290;2022-07-29T09:36:57;100547.51;;;31.64;26.26
28027;BME280;15344;52.342;-1.290;2022-07-29T09:39:28;100546.28;;;34.40;25.54
28027;BME280;15344;52.342;-1.290;2022-07-29T09:41:52;100545.35;;;33.80;24.31
28027;BME280;15344;52.342;-1.290;2022-07-29T09:44:14;100543.21;;;34.33;24.05
28027;BME280;15344;52.342;-1.290;2022-07-29T09:46:40;100538.30;;;32.88;23.69
28027;BME280;15344;52.342;-1.290;2022-07-29T09:49:08;100542.23;;;34.12;24.88
28027;BME280;15344;52.342;-1.290;2022-07-29T09:51:31;100547.10;;;33.31;24.68
28027;BME280;15344;52.342;-1.290;2022-07-29T09:53:56;100553.77;;;35.47;22.98
28027;BME280;15344;52.342;-1.290;2022-07-29T09:58:47;100546.79;;;33.90;23.73
28027;BME280;15344;52.342;-1.290;2022-07-29T10:01:13;100546.87;;;35.15;22.72
28027;BME280;15344;52.342;-1.290;2022-07-29T10:06:06;100543.46;;;34.93;23.45
28027;BME280;15344;52.342;-1.290;2022-07-29T10:08:30;100541.14;;;34.29;22.85
28027;BME280;15344;52.342;-1.290;2022-07-29T10:13:20;100539.42;;;34.20;23.95
28027;BME280;15344;52.342;-1.290;2022-07-29T10:15:47;100543.89;;;34.81;22.80
28027;BME280;15344;52.342;-1.290;2022-07-29T10:18:13;100544.09;;;33.62;23.57
28027;BME280;15344;52.342;-1.290;2022-07-29T10:20:39;100542.34;;;33.49;24.76
28027;BME280;15344;52.342;-1.290;2022-07-29T10:23:03;100541.15;;;32.76;26.32
28027;BME280;15344;52.342;-1.290;2022-07-29T10:25:28;100541.18;;;33.68;25.28
28027;BME280;15344;52.342;-1.290;2022-07-29T10:27:54;100546.88;;;35.22;24.59
28027;BME280;15344;52.342;-1.290;2022-07-29T10:30:21;100550.56;;;36.08;23.49
28027;BME280;15344;52.342;-1.290;2022-07-29T10:32:56;100540.44;;;33.59;23.30
28027;BME280;15344;52.342;-1.290;2022-07-29T10:35:21;100538.41;;;32.77;23.49
28027;BME280;15344;52.342;-1.290;2022-07-29T10:37:49;100537.25;;;32.16;24.81
28027;BME280;15344;52.342;-1.290;2022-07-29T10:40:11;100535.83;;;32.75;25.03
28027;BME280;15344;52.342;-1.290;2022-07-29T10:42:29;100539.99;;;30.67;27.44
28027;BME280;15344;52.342;-1.290;2022-07-29T10:44:53;100540.74;;;34.05;22.90
28027;BME280;15344;52.342;-1.290;2022-07-29T10:47:21;100544.01;;;32.91;25.09
28027;BME280;15344;52.342;-1.290;2022-07-29T10:52:10;100547.09;;;31.47;26.29
28027;BME280;15344;52.342;-1.290;2022-07-29T10:54:41;100549.57;;;31.59;25.74
28027;BME280;15344;52.342;-1.290;2022-07-29T10:59:27;100542.64;;;31.65;26.17
28027;BME280;15344;52.342;-1.290;2022-07-29T11:01:53;100544.30;;;31.82;26.77
28027;BME280;15344;52.342;-1.290;2022-07-29T11:09:16;100544.37;;;31.80;25.14
28027;BME280;15344;52.342;-1.290;2022-07-29T11:11:35;100541.73;;;33.01;24.16
28027;BME280;15344;52.342;-1.290;2022-07-29T11:14:00;100541.75;;;30.66;27.17
28027;BME280;15344;52.342;-1.290;2022-07-29T11:23:43;100529.60;;;32.41;24.34
28027;BME280;15344;52.342;-1.290;2022-07-29T11:26:14;100530.42;;;33.18;23.46
28027;BME280;15344;52.342;-1.290;2022-07-29T11:28:39;100534.69;;;30.99;25.81
28027;BME280;15344;52.342;-1.290;2022-07-29T11:31:00;100531.27;;;32.34;24.16
28027;BME280;15344;52.342;-1.290;2022-07-29T11:33:28;100528.11;;;31.86;25.47
28027;BME280;15344;52.342;-1.290;2022-07-29T11:38:23;100535.12;;;31.11;24.92
28027;BME280;15344;52.342;-1.290;2022-07-29T11:43:09;100528.37;;;30.59;25.41
28027;BME280;15344;52.342;-1.290;2022-07-29T11:48:00;100528.49;;;31.86;25.70
28027;BME280;15344;52.342;-1.290;2022-07-29T11:50:29;100519.75;;;31.62;25.51
28027;BME280;15344;52.342;-1.290;2022-07-29T11:52:51;100518.80;;;31.42;24.68
28027;BME280;15344;52.342;-1.290;2022-07-29T11:55:18;100516.54;;;30.81;26.36
28027;BME280;15344;52.342;-1.290;2022-07-29T11:57:47;100517.44;;;30.92;25.91
28027;BME280;15344;52.342;-1.290;2022-07-29T12:00:11;100509.63;;;31.23;26.05
28027;BME280;15344;52.342;-1.290;2022-07-29T12:02:39;100508.43;;;30.79;27.54
28027;BME280;15344;52.342;-1.290;2022-07-29T12:04:59;100506.34;;;30.00;26.93
28027;BME280;15344;52.342;-1.290;2022-07-29T12:07:27;100501.96;;;30.28;28.02
28027;BME280;15344;52.342;-1.290;2022-07-29T12:09:52;100499.18;;;31.48;27.04
28027;BME280;15344;52.342;-1.290;2022-07-29T12:12:17;100497.95;;;31.25;25.71
28027;BME280;15344;52.342;-1.290;2022-07-29T12:14:42;100496.00;;;30.43;25.54
28027;BME280;15344;52.342;-1.290;2022-07-29T12:19:41;100491.14;;;32.02;24.89
28027;BME280;15344;52.342;-1.290;2022-07-29T12:21:59;100493.10;;;31.32;26.14
28027;BME280;15344;52.342;-1.290;2022-07-29T12:24:25;100492.56;;;31.67;26.22
28027;BME280;15344;52.342;-1.290;2022-07-29T12:26:51;100489.96;;;30.91;26.83
28027;BME280;15344;52.342;-1.290;2022-07-29T12:29:18;100489.92;;;31.58;26.95
28027;BME280;15344;52.342;-1.290;2022-07-29T12:31:42;100489.52;;;31.35;26.46
28027;BME280;15344;52.342;-1.290;2022-07-29T12:34:08;100486.93;;;30.91;27.65
28027;BME280;15344;52.342;-1.290;2022-07-29T12:36:33;100481.93;;;31.37;25.68
28027;BME280;15344;52.342;-1.290;2022-07-29T12:38:59;100474.54;;;29.34;28.72
28027;BME280;15344;52.342;-1.290;2022-07-29T12:41:27;100480.39;;;30.78;26.97
28027;BME280;15344;52.342;-1.290;2022-07-29T12:43:53;100474.78;;;28.85;26.86
28027;BME280;15344;52.342;-1.290;2022-07-29T12:46:16;100479.42;;;30.50;26.17
28027;BME280;15344;52.342;-1.290;2022-07-29T12:48:43;100475.96;;;29.63;27.42
28027;BME280;15344;52.342;-1.290;2022-07-29T12:51:08;100479.35;;;30.73;25.74
28027;BME280;15344;52.342;-1.290;2022-07-29T12:53:34;100477.94;;;31.38;25.14
28027;BME280;15344;52.342;-1.290;2022-07-29T12:55:59;100482.18;;;30.81;25.60
28027;BME280;15344;52.342;-1.290;2022-07-29T12:58:29;100475.75;;;30.13;25.74
28027;BME280;15344;52.342;-1.290;2022-07-29T13:03:16;100483.36;;;28.87;27.99
28027;BME280;15344;52.342;-1.290;2022-07-29T13:05:43;100483.20;;;29.53;27.43
28027;BME280;15344;52.342;-1.290;2022-07-29T13:08:13;100491.51;;;30.85;28.18
28027;BME280;15344;52.342;-1.290;2022-07-29T13:10:36;100489.98;;;30.16;26.50
28027;BME280;15344;52.342;-1.290;2022-07-29T13:13:04;100494.38;;;30.61;27.68
28027;BME280;15344;52.342;-1.290;2022-07-29T13:15:26;100488.54;;;29.83;27.41
28027;BME280;15344;52.342;-1.290;2022-07-29T13:17:50;100488.37;;;29.53;28.11
28027;BME280;15344;52.342;-1.290;2022-07-29T13:20:16;100487.96;;;28.59;27.96
28027;BME280;15344;52.342;-1.290;2022-07-29T13:22:42;100490.53;;;30.32;27.53
28027;BME280;15344;52.342;-1.290;2022-07-29T13:25:08;100486.64;;;30.08;27.72
28027;BME280;15344;52.342;-1.290;2022-07-29T13:27:35;100485.39;;;29.45;26.84
28027;BME280;15344;52.342;-1.290;2022-07-29T13:30:00;100484.24;;;30.13;26.24
28027;BME280;15344;52.342;-1.290;2022-07-29T13:32:26;100490.44;;;31.58;26.31
28027;BME280;15344;52.342;-1.290;2022-07-29T13:34:51;100488.88;;;29.90;27.56
28027;BME280;15344;52.342;-1.290;2022-07-29T13:37:16;100491.29;;;31.71;25.11
28027;BME280;15344;52.342;-1.290;2022-07-29T13:39:42;100492.18;;;29.58;25.96
28027;BME280;15344;52.342;-1.290;2022-07-29T13:42:08;100495.68;;;29.19;28.01
28027;BME280;15344;52.342;-1.290;2022-07-29T13:44:33;100496.52;;;30.13;26.12
28027;BME280;15344;52.342;-1.290;2022-07-29T13:46:59;100497.42;;;31.08;25.88
28027;BME280;15344;52.342;-1.290;2022-07-29T13:49:26;100495.54;;;31.61;25.90
28027;BME280;15344;52.342;-1.290;2022-07-29T13:51:50;100489.45;;;29.29;28.12